Íslenskir flugvellir

Veldu flugvelli í þeirri röð sem þeir eiga að birtast og styddu á hnappinn

Uppfært síðast 08.03.2021 - kl. 15:53

SIGMET síðustu 6 klst.

Engin SIGMET skeyti bárust síðustu 6 klst.

Egilsstaðir

METAR síðustu 3 klst

TímiSkeyti
2021-03-08 14.00METAR BIEG 081400Z 18021G36KT 9999 FEW038 07/03 Q1003
2021-03-08 15.00METAR BIEG 081500Z 22017G27KT 9999 FEW030 SCT044 08/04 Q1003
2021-03-08 13.00METAR BIEG 081300Z 18020G32KT 9999 FEW045 07/02 Q1005

TAF

TAFBIEG2021-03-08 13.58Z08151518018G30KT 9999 FEW040 TX07/0815Z TNM03/0906Z BECMG 0817/0819 20008KT -RA BKN020 TEMPO 0819/0823 6000 RADZ BKN012 BECMG 0911/0913 02012KT TEMPO 0913/0915 4000 -SNRA BKN010

Allur vindur er réttvísandi bæði í Metar og frá sjálfvirkum veðurstöðvum




Aðrir tengdir vefir



Þetta vefsvæði byggir á Eplica